Time;durP1;ratioP1;P1;durP2;ratioP2;P2;SDS_P1;SDS_P2;PMS_P1;PMS_P2;Temp;Humidity;BMP_temperature;BMP_pressure;BME280_temperature;BME280_humidity;BME280_pressure;Samples;Min_cycle;Max_cycle;Signal;HPM_P1;HPM_P2
2021/12/22 00:01:25;;;;;;;24.23;12.07;;;;;;;;;;5002943;28;20042;-75
2021/12/22 00:03:51;;;;;;;26.95;13.23;;;;;;;;;;4985695;28;20045;-74
2021/12/22 00:06:23;;;;;;;20.90;12.25;;;;;;;;;;5004307;28;20022;-74
2021/12/22 00:08:49;;;;;;;28.90;14.15;;;;;;;;;;5004607;28;20045;-74
2021/12/22 00:11:14;;;;;;;30.65;15.00;;;;;;;;;;5004392;28;20044;-76
2021/12/22 00:13:40;;;;;;;23.08;12.98;;;;;;;;;;5003427;28;20137;-74
2021/12/22 00:16:06;;;;;;;20.58;12.13;;;;;;;;;;5002431;28;21000;-74
2021/12/22 00:18:32;;;;;;;19.27;11.80;;;;;;;;;;5003027;28;20087;-74
2021/12/22 00:20:57;;;;;;;19.23;10.63;;;;;;;;;;4986512;28;20045;-74
2021/12/22 00:23:23;;;;;;;22.33;11.45;;;;;;;;;;5003170;28;20132;-74
2021/12/22 00:25:49;;;;;;;19.20;11.55;;;;;;;;;;5002012;28;20383;-74
2021/12/22 00:28:14;;;;;;;21.92;12.13;;;;;;;;;;5003349;28;20080;-75
2021/12/22 00:30:40;;;;;;;31.00;14.80;;;;;;;;;;4986429;28;20042;-76
2021/12/22 00:33:07;;;;;;;31.08;16.38;;;;;;;;;;5004200;28;20405;-76
2021/12/22 00:35:39;;;;;;;56.17;22.63;;;;;;;;;;5003238;28;20395;-76
2021/12/22 00:38:06;;;;;;;;;;;;;;;;;;5004209;28;20096;-75
2021/12/22 00:40:31;;;;;;;35.72;16.73;;;;;;;;;;5002871;28;19917;-76
2021/12/22 00:42:57;;;;;;;32.50;17.50;;;;;;;;;;5003886;28;20107;-76
2021/12/22 00:45:24;;;;;;;29.60;14.02;;;;;;;;;;5003312;28;20042;-75
2021/12/22 00:47:50;;;;;;;28.88;12.93;;;;;;;;;;5003426;28;20117;-75
2021/12/22 00:50:15;;;;;;;20.80;11.88;;;;;;;;;;5002655;28;20155;-75
2021/12/22 00:52:41;;;;;;;22.17;12.23;;;;;;;;;;5002558;28;20037;-75
2021/12/22 00:55:07;;;;;;;22.20;11.98;;;;;;;;;;5004528;28;20029;-75
2021/12/22 00:57:34;;;;;;;22.52;12.07;;;;;;;;;;5003494;28;20125;-75
2021/12/22 00:59:59;;;;;;;21.88;11.10;;;;;;;;;;5002401;28;20039;-75
2021/12/22 01:02:25;;;;;;;25.05;12.82;;;;;;;;;;5003592;28;20037;-75
2021/12/22 01:04:51;;;;;;;22.80;12.30;;;;;;;;;;5003605;28;20065;-75
2021/12/22 01:07:17;;;;;;;22.92;13.05;;;;;;;;;;5002516;28;20069;-74
2021/12/22 01:09:43;;;;;;;26.48;13.15;;;;;;;;;;5001615;28;20140;-74
2021/12/22 01:12:09;;;;;;;23.13;11.43;;;;;;;;;;5002061;28;20080;-74
2021/12/22 01:14:36;;;;;;;27.13;11.85;;;;;;;;;;5003521;28;20030;-75
2021/12/22 01:17:03;;;;;;;24.27;11.63;;;;;;;;;;5001989;28;20438;-75
2021/12/22 01:19:42;;;;;;;18.00;10.65;;;;;;;;;;5003565;28;20033;-75
2021/12/22 01:22:23;;;;;;;21.60;11.18;;;;;;;;;;5001053;28;20050;-75
2021/12/22 01:24:59;;;;;;;15.87;10.73;;;;;;;;;;5003394;28;20034;-75
2021/12/22 01:27:27;;;;;;;19.00;11.10;;;;;;;;;;5001887;28;20037;-74
2021/12/22 01:29:52;;;;;;;17.65;10.32;;;;;;;;;;5003358;28;20424;-74
2021/12/22 01:32:18;;;;;;;18.70;10.90;;;;;;;;;;5000648;28;20040;-75
2021/12/22 01:34:44;;;;;;;21.55;11.80;;;;;;;;;;5001876;28;20022;-75
2021/12/22 01:37:09;;;;;;;25.55;12.25;;;;;;;;;;5003042;28;20479;-75
2021/12/22 01:39:34;;;;;;;21.88;11.48;;;;;;;;;;5002881;28;20073;-75
2021/12/22 01:42:00;;;;;;;24.45;13.23;;;;;;;;;;5003025;28;20033;-75
2021/12/22 01:44:46;;;;;;;29.08;13.68;;;;;;;;;;4993725;28;20038;-75
2021/12/22 01:49:57;;;;;;;24.65;11.50;;;;;;;;;;5002890;28;20121;-75
2021/12/22 01:52:23;;;;;;;22.92;10.93;;;;;;;;;;5001185;28;20048;-75
2021/12/22 01:55:13;;;;;;;23.98;12.38;;;;;;;;;;5002047;28;20033;-76
2021/12/22 01:57:48;;;;;;;20.13;11.77;;;;;;;;;;4985134;28;21107;-76
2021/12/22 02:00:15;;;;;;;16.75;10.60;;;;;;;;;;5002632;28;20084;-75
2021/12/22 02:02:40;;;;;;;22.42;11.20;;;;;;;;;;5000582;28;20561;-75
2021/12/22 02:05:06;;;;;;;19.50;10.52;;;;;;;;;;5000444;28;20042;-75
2021/12/22 02:07:32;;;;;;;20.25;11.48;;;;;;;;;;4999236;28;20069;-75
2021/12/22 02:12:33;;;;;;;24.23;12.55;;;;;;;;;;5000873;28;20034;-76
2021/12/22 02:14:58;;;;;;;29.13;15.63;;;;;;;;;;5002342;28;20068;-75
2021/12/22 02:17:26;;;;;;;31.98;15.57;;;;;;;;;;5000017;28;20061;-75
2021/12/22 02:19:52;;;;;;;30.98;14.80;;;;;;;;;;5002142;28;20034;-76
2021/12/22 02:22:18;;;;;;;22.45;13.38;;;;;;;;;;5000927;28;20252;-76
2021/12/22 02:24:50;;;;;;;30.13;16.52;;;;;;;;;;4999641;28;20107;-75
2021/12/22 02:27:28;;;;;;;29.88;13.40;;;;;;;;;;4998518;28;20779;-76
2021/12/22 02:29:59;;;;;;;24.88;13.90;;;;;;;;;;5000429;28;20378;-75
2021/12/22 02:35:05;;;;;;;21.05;12.02;;;;;;;;;;4999120;28;20057;-75
2021/12/22 02:37:40;;;;;;;21.95;12.13;;;;;;;;;;4998001;28;20128;-74
2021/12/22 02:40:13;;;;;;;24.38;11.80;;;;;;;;;;4996465;28;20487;-75
2021/12/22 02:42:38;;;;;;;24.35;12.43;;;;;;;;;;5001355;28;20029;-75
2021/12/22 02:45:15;;;;;;;24.17;12.90;;;;;;;;;;5000709;28;20517;-76
2021/12/22 02:47:41;;;;;;;25.02;15.32;;;;;;;;;;5000431;28;20041;-76
2021/12/22 02:50:09;;;;;;;23.35;13.05;;;;;;;;;;5001330;28;20045;-75
2021/12/22 02:52:48;;;;;;;19.75;12.25;;;;;;;;;;4983894;28;20486;-75
2021/12/22 02:55:13;;;;;;;24.00;13.48;;;;;;;;;;4984344;28;20145;-75
2021/12/22 02:57:47;;;;;;;22.65;12.73;;;;;;;;;;5001366;28;20133;-75
2021/12/22 03:00:48;;;;;;;24.88;13.82;;;;;;;;;;4999363;28;20079;-75
2021/12/22 03:03:52;;;;;;;27.95;13.20;;;;;;;;;;5001243;28;20085;-76
2021/12/22 03:06:04;;;;;;;24.38;12.50;;;;;;;;;;5000967;28;20045;-75
2021/12/22 03:08:30;;;;;;;28.52;15.63;;;;;;;;;;4983950;28;20073;-75
2021/12/22 03:10:55;;;;;;;29.88;13.95;;;;;;;;;;5015194;28;20155;-75
2021/12/22 03:13:24;;;;;;;28.40;12.95;;;;;;;;;;5001441;28;20045;-75
2021/12/22 03:15:50;;;;;;;20.02;11.15;;;;;;;;;;4999925;28;20113;-76
2021/12/22 03:18:17;;;;;;;18.75;11.70;;;;;;;;;;5000307;28;20045;-75
2021/12/22 03:20:45;;;;;;;23.70;11.93;;;;;;;;;;5001735;28;20133;-75
2021/12/22 03:23:11;;;;;;;25.25;14.05;;;;;;;;;;5000448;28;20037;-76
2021/12/22 03:25:39;;;;;;;24.50;14.60;;;;;;;;;;4983804;28;20383;-75
2021/12/22 03:28:05;;;;;;;26.50;14.85;;;;;;;;;;5001642;28;20582;-75
2021/12/22 03:30:31;;;;;;;28.00;14.55;;;;;;;;;;5000982;28;20034;-75
2021/12/22 03:32:57;;;;;;;24.65;14.05;;;;;;;;;;4999104;28;20494;-75
2021/12/22 03:35:22;;;;;;;26.50;13.55;;;;;;;;;;4999898;28;20041;-75
2021/12/22 03:37:52;;;;;;;27.80;13.68;;;;;;;;;;4999768;28;20045;-75
2021/12/22 03:40:20;;;;;;;30.52;14.40;;;;;;;;;;5000048;28;20054;-75
2021/12/22 03:42:47;;;;;;;29.50;15.07;;;;;;;;;;4999859;28;20049;-75
2021/12/22 03:45:13;;;;;;;30.92;17.42;;;;;;;;;;4999030;28;20449;-75
2021/12/22 03:47:38;;;;;;;26.80;14.57;;;;;;;;;;4999878;28;20478;-76
2021/12/22 03:50:05;;;;;;;27.38;13.63;;;;;;;;;;4999951;28;20116;-75
2021/12/22 03:52:31;;;;;;;27.73;14.63;;;;;;;;;;4999525;28;20038;-75
2021/12/22 03:54:58;;;;;;;29.05;12.73;;;;;;;;;;5000533;28;20034;-76
2021/12/22 03:57:27;;;;;;;22.90;13.77;;;;;;;;;;4999329;28;20026;-75
2021/12/22 03:59:55;;;;;;;23.38;10.48;;;;;;;;;;4999651;28;20064;-75
2021/12/22 04:02:21;;;;;;;23.50;12.15;;;;;;;;;;4983087;28;20059;-75
2021/12/22 04:04:49;;;;;;;24.83;13.77;;;;;;;;;;4999925;28;20486;-75
2021/12/22 04:07:15;;;;;;;23.83;14.55;;;;;;;;;;4998792;28;20379;-75
2021/12/22 04:09:41;;;;;;;22.75;13.02;;;;;;;;;;4999709;28;20046;-76
2021/12/22 04:12:07;;;;;;;31.08;15.30;;;;;;;;;;5000810;28;20038;-76
2021/12/22 04:14:32;;;;;;;28.35;15.88;;;;;;;;;;4999690;28;20033;-76
2021/12/22 04:16:58;;;;;;;29.70;15.25;;;;;;;;;;4999197;28;20041;-75
2021/12/22 04:19:23;;;;;;;15.63;8.88;;;;;;;;;;4999665;28;20038;-75
2021/12/22 04:21:50;;;;;;;19.30;11.63;;;;;;;;;;4999651;28;20046;-75
2021/12/22 04:24:16;;;;;;;23.75;14.00;;;;;;;;;;4999471;28;20060;-76
2021/12/22 04:26:41;;;;;;;21.83;11.75;;;;;;;;;;4999859;28;20065;-76
2021/12/22 04:29:10;;;;;;;31.95;13.65;;;;;;;;;;4986292;28;20132;-76
2021/12/22 04:31:35;;;;;;;24.10;14.68;;;;;;;;;;4999141;28;20064;-75
2021/12/22 04:34:03;;;;;;;23.48;12.50;;;;;;;;;;5002193;28;20030;-75
2021/12/22 04:36:29;;;;;;;44.67;19.17;;;;;;;;;;5004313;28;20022;-76
2021/12/22 04:38:56;;;;;;;29.75;15.20;;;;;;;;;;4999969;28;20055;-75
2021/12/22 04:41:21;;;;;;;22.10;13.15;;;;;;;;;;5002413;28;20088;-76
2021/12/22 04:43:47;;;;;;;26.02;14.05;;;;;;;;;;5004265;28;20045;-76
2021/12/22 04:46:13;;;;;;;27.83;15.07;;;;;;;;;;5003044;28;20046;-75
2021/12/22 04:48:38;;;;;;;29.15;15.23;;;;;;;;;;5001711;28;20038;-76
2021/12/22 04:51:12;;;;;;;24.95;14.32;;;;;;;;;;4984701;28;20049;-76
2021/12/22 04:53:50;;;;;;;20.40;12.02;;;;;;;;;;5003888;28;20065;-75
2021/12/22 04:56:15;;;;;;;20.80;12.77;;;;;;;;;;5002832;28;20403;-76
2021/12/22 04:58:41;;;;;;;23.35;13.30;;;;;;;;;;5002886;28;20045;-75
2021/12/22 05:01:06;;;;;;;26.48;12.90;;;;;;;;;;5002873;28;20200;-75
2021/12/22 05:03:32;;;;;;;24.42;13.88;;;;;;;;;;4986282;28;20037;-75
2021/12/22 05:05:57;;;;;;;24.48;13.63;;;;;;;;;;5002372;28;20069;-75
2021/12/22 05:08:22;;;;;;;20.17;12.57;;;;;;;;;;4985806;28;20045;-71
2021/12/22 05:10:48;;;;;;;23.77;13.23;;;;;;;;;;5002839;28;20048;-72
2021/12/22 05:13:13;;;;;;;23.98;13.70;;;;;;;;;;5002564;28;20064;-72
2021/12/22 05:15:39;;;;;;;23.63;12.35;;;;;;;;;;5003805;28;20426;-72
2021/12/22 05:20:40;;;;;;;16.33;10.40;;;;;;;;;;5003903;28;20550;-71
2021/12/22 05:23:06;;;;;;;23.15;13.00;;;;;;;;;;5002733;28;20125;-72
2021/12/22 05:25:32;;;;;;;23.58;12.15;;;;;;;;;;5003639;28;20034;-74
2021/12/22 05:27:57;;;;;;;26.30;12.98;;;;;;;;;;5003894;28;20087;-72
2021/12/22 05:30:23;;;;;;;21.08;12.88;;;;;;;;;;5003289;28;20113;-72
2021/12/22 05:32:53;;;;;;;24.67;13.60;;;;;;;;;;5002822;28;20065;-73
2021/12/22 05:35:19;;;;;;;26.27;13.65;;;;;;;;;;5000849;28;20056;-74
2021/12/22 05:37:44;;;;;;;23.85;12.15;;;;;;;;;;5001889;28;20406;-71
2021/12/22 05:40:10;;;;;;;22.15;13.15;;;;;;;;;;5003007;28;20117;-74
2021/12/22 05:42:36;;;;;;;23.55;13.52;;;;;;;;;;5002517;28;20041;-75
2021/12/22 05:45:03;;;;;;;21.20;12.68;;;;;;;;;;5001600;28;20096;-73
2021/12/22 05:47:28;;;;;;;21.20;12.50;;;;;;;;;;5002421;28;20030;-73
2021/12/22 05:49:54;;;;;;;25.63;13.50;;;;;;;;;;5002650;28;20661;-74
2021/12/22 05:52:20;;;;;;;25.13;12.95;;;;;;;;;;5000339;28;20038;-73
2021/12/22 05:54:49;;;;;;;23.38;13.45;;;;;;;;;;5002172;28;20112;-73
2021/12/22 05:57:15;;;;;;;28.00;15.45;;;;;;;;;;5000524;28;20034;-71
2021/12/22 05:59:41;;;;;;;22.33;14.35;;;;;;;;;;5002689;28;20665;-73
2021/12/22 06:02:06;;;;;;;23.77;12.85;;;;;;;;;;5001567;28;20044;-70
2021/12/22 06:04:32;;;;;;;25.27;14.85;;;;;;;;;;5000216;28;20033;-71
2021/12/22 06:06:57;;;;;;;26.10;13.98;;;;;;;;;;5000849;28;20038;-72
2021/12/22 06:09:23;;;;;;;27.58;14.10;;;;;;;;;;5003535;28;20091;-72
2021/12/22 06:11:48;;;;;;;29.05;15.50;;;;;;;;;;4998996;28;20030;-71
2021/12/22 06:14:14;;;;;;;22.95;13.35;;;;;;;;;;5001783;28;20574;-73
2021/12/22 06:16:39;;;;;;;27.85;15.07;;;;;;;;;;5001203;28;20121;-72
2021/12/22 06:19:08;;;;;;;26.38;14.27;;;;;;;;;;5001265;28;20088;-72
2021/12/22 06:21:33;;;;;;;23.65;14.35;;;;;;;;;;5001388;28;20403;-72
2021/12/22 06:23:59;;;;;;;27.20;15.13;;;;;;;;;;5001329;28;20034;-71
2021/12/22 06:26:24;;;;;;;29.42;16.10;;;;;;;;;;5001018;28;20449;-72
2021/12/22 06:28:50;;;;;;;33.67;16.95;;;;;;;;;;5000754;28;20034;-72
2021/12/22 06:31:17;;;;;;;25.25;14.45;;;;;;;;;;5000676;28;20084;-71
2021/12/22 06:33:42;;;;;;;26.80;15.20;;;;;;;;;;5001610;28;20073;-71
2021/12/22 06:36:08;;;;;;;27.88;14.93;;;;;;;;;;5000001;28;20121;-72
2021/12/22 06:38:33;;;;;;;22.42;12.48;;;;;;;;;;5002172;28;20088;-70
2021/12/22 06:40:59;;;;;;;29.88;13.90;;;;;;;;;;5001310;28;20038;-72
2021/12/22 06:43:25;;;;;;;28.15;13.80;;;;;;;;;;5002689;28;20429;-73
2021/12/22 06:45:51;;;;;;;23.85;13.07;;;;;;;;;;5002638;28;20045;-72
2021/12/22 06:48:16;;;;;;;21.83;13.00;;;;;;;;;;5002980;28;20567;-72
2021/12/22 06:50:42;;;;;;;25.13;14.98;;;;;;;;;;5001512;28;20048;-74
2021/12/22 06:53:07;;;;;;;24.85;14.43;;;;;;;;;;4998695;28;20133;-74
2021/12/22 06:55:33;;;;;;;25.27;13.57;;;;;;;;;;5000217;28;20041;-75
2021/12/22 06:58:00;;;;;;;22.50;12.50;;;;;;;;;;5000196;28;20441;-76
2021/12/22 07:00:26;;;;;;;16.67;10.63;;;;;;;;;;5001902;28;20096;-77
2021/12/22 07:02:53;;;;;;;27.40;15.07;;;;;;;;;;4999290;28;20072;-72
2021/12/22 07:05:18;;;;;;;31.88;14.70;;;;;;;;;;4984302;28;20037;-72
2021/12/22 07:07:44;;;;;;;26.67;14.73;;;;;;;;;;5002284;28;20037;-73
2021/12/22 07:10:10;;;;;;;22.77;13.77;;;;;;;;;;5001961;28;20083;-73
2021/12/22 07:12:40;;;;;;;21.48;12.55;;;;;;;;;;4999540;28;20046;-77
2021/12/22 07:15:09;;;;;;;25.95;13.65;;;;;;;;;;4999552;28;20091;-72
2021/12/22 07:17:36;;;;;;;29.02;15.93;;;;;;;;;;5001294;28;20079;-73
2021/12/22 07:20:05;;;;;;;24.30;12.98;;;;;;;;;;4984003;28;20156;-76
2021/12/22 07:22:31;;;;;;;27.65;14.43;;;;;;;;;;5000958;28;20129;-74
2021/12/22 07:24:57;;;;;;;24.10;13.60;;;;;;;;;;4999162;28;20050;-76
2021/12/22 07:27:22;;;;;;;27.05;13.73;;;;;;;;;;5002042;28;20034;-78
2021/12/22 07:29:47;;;;;;;24.77;14.45;;;;;;;;;;5000369;28;20072;-74
2021/12/22 07:32:13;;;;;;;32.08;15.55;;;;;;;;;;5002013;28;20066;-74
2021/12/22 07:34:47;;;;;;;32.35;16.02;;;;;;;;;;5000547;28;20034;-73
2021/12/22 07:37:38;;;;;;;25.83;14.40;;;;;;;;;;4999603;28;20037;-75
2021/12/22 07:40:07;;;;;;;30.17;16.58;;;;;;;;;;5016683;28;20040;-75
2021/12/22 07:42:32;;;;;;;27.00;14.15;;;;;;;;;;5001443;28;20035;-75
2021/12/22 07:44:58;;;;;;;31.25;15.15;;;;;;;;;;5000232;28;20119;-75
2021/12/22 07:47:23;;;;;;;29.60;17.13;;;;;;;;;;4998162;28;20033;-76
2021/12/22 07:49:50;;;;;;;30.80;16.98;;;;;;;;;;4999112;28;20101;-76
2021/12/22 07:52:15;;;;;;;33.33;16.55;;;;;;;;;;4982683;28;20040;-72
2021/12/22 07:54:41;;;;;;;26.77;14.52;;;;;;;;;;5001435;28;20038;-72
2021/12/22 07:57:07;;;;;;;31.40;17.42;;;;;;;;;;5000381;28;20042;-74
2021/12/22 07:59:32;;;;;;;26.13;14.18;;;;;;;;;;4999807;28;20029;-71
2021/12/22 08:01:58;;;;;;;29.80;15.77;;;;;;;;;;5000572;28;20037;-74
2021/12/22 08:04:24;;;;;;;26.25;15.20;;;;;;;;;;4999853;28;20038;-72
2021/12/22 08:06:50;;;;;;;26.98;14.15;;;;;;;;;;5000882;28;20045;-71
2021/12/22 08:09:16;;;;;;;26.55;16.00;;;;;;;;;;5000390;28;20057;-74
2021/12/22 08:11:41;;;;;;;24.23;14.57;;;;;;;;;;5005239;28;20037;-73
2021/12/22 08:14:07;;;;;;;27.65;16.58;;;;;;;;;;5005846;28;20120;-76
2021/12/22 08:16:32;;;;;;;31.63;17.23;;;;;;;;;;5003867;28;20495;-76
2021/12/22 08:18:58;;;;;;;26.50;13.52;;;;;;;;;;5002540;28;20042;-73
2021/12/22 08:21:23;;;;;;;29.15;15.50;;;;;;;;;;5004612;28;20033;-74
2021/12/22 08:23:49;;;;;;;32.22;18.92;;;;;;;;;;5003968;28;20518;-72
2021/12/22 08:26:14;;;;;;;37.20;17.45;;;;;;;;;;5004925;28;20065;-75
2021/12/22 08:28:40;;;;;;;36.63;16.80;;;;;;;;;;5003485;28;20037;-74
2021/12/22 08:31:05;;;;;;;35.50;18.02;;;;;;;;;;5003990;28;20034;-72
2021/12/22 08:33:33;;;;;;;29.40;15.63;;;;;;;;;;5004403;28;20041;-72
2021/12/22 08:38:51;;;;;;;26.70;15.35;;;;;;;;;;5003319;28;20121;-72
2021/12/22 08:41:18;;;;;;;31.40;14.73;;;;;;;;;;5004194;28;20045;-73
2021/12/22 08:43:44;;;;;;;26.17;16.38;;;;;;;;;;5005032;28;20136;-72
2021/12/22 08:46:10;;;;;;;30.23;16.10;;;;;;;;;;5004776;28;20115;-73
2021/12/22 08:48:35;;;;;;;28.70;15.48;;;;;;;;;;5004959;28;20045;-78
2021/12/22 08:51:00;;;;;;;26.25;13.00;;;;;;;;;;5003581;28;20116;-75
2021/12/22 08:53:26;;;;;;;26.50;14.02;;;;;;;;;;5002760;28;20113;-74
2021/12/22 08:55:52;;;;;;;26.00;14.13;;;;;;;;;;5001793;28;20399;-75
2021/12/22 08:58:17;;;;;;;25.00;13.07;;;;;;;;;;4986994;28;20406;-75
2021/12/22 09:00:43;;;;;;;34.08;17.02;;;;;;;;;;5002952;28;20061;-74
2021/12/22 09:03:09;;;;;;;28.77;15.18;;;;;;;;;;5001584;28;20033;-75
2021/12/22 09:05:34;;;;;;;29.77;15.45;;;;;;;;;;4998966;28;20038;-74
2021/12/22 09:08:00;;;;;;;28.05;15.38;;;;;;;;;;5000651;28;20514;-74
2021/12/22 09:10:25;;;;;;;25.35;13.93;;;;;;;;;;5001948;28;20030;-75
2021/12/22 09:12:50;;;;;;;24.35;14.48;;;;;;;;;;5001703;28;20715;-74
2021/12/22 09:15:17;;;;;;;15.05;9.60;;;;;;;;;;4999249;28;20038;-74
2021/12/22 09:17:44;;;;;;;19.00;12.10;;;;;;;;;;5001492;28;20068;-74
2021/12/22 09:20:09;;;;;;;24.40;12.60;;;;;;;;;;4984648;28;20026;-74
2021/12/22 09:22:35;;;;;;;22.27;10.13;;;;;;;;;;5001897;28;20530;-74
2021/12/22 09:25:01;;;;;;;21.98;11.55;;;;;;;;;;5001565;28;20038;-75
2021/12/22 09:27:26;;;;;;;26.00;14.43;;;;;;;;;;5003083;28;20426;-75
2021/12/22 09:29:52;;;;;;;23.10;12.52;;;;;;;;;;5003598;28;20044;-74
2021/12/22 09:32:18;;;;;;;16.27;10.95;;;;;;;;;;5001630;28;20045;-74
2021/12/22 09:34:45;;;;;;;33.60;17.95;;;;;;;;;;5003747;28;20037;-74
2021/12/22 09:37:11;;;;;;;28.20;15.32;;;;;;;;;;5001120;28;20462;-76
2021/12/22 09:39:37;;;;;;;28.83;15.98;;;;;;;;;;5002300;28;20453;-74
2021/12/22 09:42:03;;;;;;;18.83;11.82;;;;;;;;;;5003094;28;20030;-75
2021/12/22 09:44:32;;;;;;;30.02;18.40;;;;;;;;;;5003263;28;20029;-74
2021/12/22 09:46:58;;;;;;;28.45;13.05;;;;;;;;;;5011321;28;20458;-75
2021/12/22 09:49:59;;;;;;;18.13;11.02;;;;;;;;;;5002564;28;20073;-74
2021/12/22 09:52:44;;;;;;;17.17;8.82;;;;;;;;;;5002801;28;20045;-71
2021/12/22 09:55:06;;;;;;;19.73;12.13;;;;;;;;;;4999529;28;20406;-75
2021/12/22 09:57:32;;;;;;;21.90;14.80;;;;;;;;;;5000913;28;20391;-71
2021/12/22 09:59:59;;;;;;;24.20;15.57;;;;;;;;;;5002011;28;20053;-69
2021/12/22 10:02:29;;;;;;;24.23;12.55;;;;;;;;;;4999544;28;20038;-73
2021/12/22 10:04:59;;;;;;;20.10;11.18;;;;;;;;;;5001509;28;20073;-73
2021/12/22 10:07:28;;;;;;;22.92;13.40;;;;;;;;;;5002464;28;20045;-73
2021/12/22 10:09:59;;;;;;;22.88;12.30;;;;;;;;;;5001314;28;20038;-74
2021/12/22 10:12:26;;;;;;;23.83;14.55;;;;;;;;;;5001234;28;20769;-73
2021/12/22 10:14:53;;;;;;;24.50;12.88;;;;;;;;;;5002613;28;20029;-71
2021/12/22 10:17:29;;;;;;;22.67;13.27;;;;;;;;;;5002059;28;20511;-70
2021/12/22 10:20:08;;;;;;;24.23;13.55;;;;;;;;;;4998892;28;20530;-72
2021/12/22 10:22:48;;;;;;;20.15;12.88;;;;;;;;;;5001866;28;20072;-72
2021/12/22 10:25:20;;;;;;;22.10;13.57;;;;;;;;;;5002239;28;20836;-73
2021/12/22 10:27:58;;;;;;;22.25;14.27;;;;;;;;;;5001781;28;20038;-73
2021/12/22 10:30:27;;;;;;;19.90;12.20;;;;;;;;;;4999078;28;20625;-73
2021/12/22 10:33:09;;;;;;;17.23;12.27;;;;;;;;;;5000502;28;20029;-72
2021/12/22 10:35:38;;;;;;;25.13;13.13;;;;;;;;;;5001844;28;20029;-71
2021/12/22 10:38:05;;;;;;;18.20;11.77;;;;;;;;;;5000961;28;20068;-72
2021/12/22 10:40:34;;;;;;;17.15;10.18;;;;;;;;;;5000477;28;20026;-73
2021/12/22 10:43:01;;;;;;;18.05;10.57;;;;;;;;;;4999240;28;20034;-73
2021/12/22 10:45:30;;;;;;;18.48;10.65;;;;;;;;;;5002019;28;20108;-71
2021/12/22 10:50:49;;;;;;;16.70;11.43;;;;;;;;;;5001864;28;20037;-71
2021/12/22 10:53:15;;;;;;;20.42;11.90;;;;;;;;;;4999615;28;20029;-70
2021/12/22 10:55:41;;;;;;;17.42;11.73;;;;;;;;;;5001713;28;20120;-71
2021/12/22 10:58:27;;;;;;;18.77;11.95;;;;;;;;;;5001838;28;20034;-72
2021/12/22 11:01:17;;;;;;;16.77;12.05;;;;;;;;;;5001368;28;20578;-75
2021/12/22 11:03:52;;;;;;;18.73;11.60;;;;;;;;;;4999292;28;20041;-73
2021/12/22 11:06:21;;;;;;;16.55;10.23;;;;;;;;;;5002817;28;20487;-77
2021/12/22 11:09:10;;;;;;;17.05;11.25;;;;;;;;;;5001104;28;20050;-76
2021/12/22 11:12:05;;;;;;;15.35;10.40;;;;;;;;;;5001769;28;20109;-75
2021/12/22 11:14:33;;;;;;;19.40;11.13;;;;;;;;;;4998996;28;20073;-74
2021/12/22 11:17:10;;;;;;;16.85;11.15;;;;;;;;;;5000859;28;20029;-75
2021/12/22 11:19:47;;;;;;;16.10;11.25;;;;;;;;;;5001580;28;20038;-75
2021/12/22 11:22:14;;;;;;;20.65;12.27;;;;;;;;;;5000608;28;20038;-75
2021/12/22 11:24:47;;;;;;;21.92;8.90;;;;;;;;;;5000179;28;20735;-75
2021/12/22 11:27:16;;;;;;;16.05;9.45;;;;;;;;;;5000668;28;20041;-77
2021/12/22 11:29:44;;;;;;;15.20;10.45;;;;;;;;;;5001184;28;20422;-77
2021/12/22 11:32:13;;;;;;;20.35;11.43;;;;;;;;;;5006876;28;20038;-80
2021/12/22 11:34:39;;;;;;;17.55;11.60;;;;;;;;;;5020582;28;20125;-77
2021/12/22 11:37:07;;;;;;;20.13;11.77;;;;;;;;;;5005073;28;20029;-78
2021/12/22 11:39:34;;;;;;;16.48;11.50;;;;;;;;;;4986677;28;20482;-78
2021/12/22 11:42:03;;;;;;;19.40;11.85;;;;;;;;;;4986595;28;20037;-79
2021/12/22 11:44:31;;;;;;;20.02;12.95;;;;;;;;;;5010999;28;20453;-79
2021/12/22 11:46:59;;;;;;;21.73;12.38;;;;;;;;;;4990777;28;20120;-79
2021/12/22 11:49:25;;;;;;;28.38;12.35;;;;;;;;;;4987612;28;20116;-78
2021/12/22 11:51:51;;;;;;;16.48;11.35;;;;;;;;;;5007180;28;20132;-76
2021/12/22 11:54:24;;;;;;;19.83;11.98;;;;;;;;;;5007231;28;20038;-77
2021/12/22 11:56:51;;;;;;;20.23;13.35;;;;;;;;;;5008285;28;20116;-77
2021/12/22 11:59:31;;;;;;;19.80;13.60;;;;;;;;;;5009375;28;20041;-77
2021/12/22 12:02:16;;;;;;;20.42;13.70;;;;;;;;;;5003800;28;20033;-76
2021/12/22 12:04:42;;;;;;;19.98;11.35;;;;;;;;;;5005188;28;20128;-76
2021/12/22 12:07:07;;;;;;;21.15;14.23;;;;;;;;;;5005256;28;20037;-76
2021/12/22 12:09:33;;;;;;;20.30;14.15;;;;;;;;;;5015088;28;20053;-81
2021/12/22 12:12:04;;;;;;;21.15;11.38;;;;;;;;;;5015660;28;20038;-81
2021/12/22 12:23:32;;;;;;;25.13;14.43;;;;;;;;;;5015518;28;20579;-80
2021/12/22 12:25:59;;;;;;;28.10;16.05;;;;;;;;;;5017246;28;20427;-81
2021/12/22 12:28:25;;;;;;;24.13;14.40;;;;;;;;;;5010077;28;20033;-74
2021/12/22 12:30:57;;;;;;;23.67;13.85;;;;;;;;;;4999936;28;20084;-74
2021/12/22 12:33:26;;;;;;;21.37;12.23;;;;;;;;;;5001037;28;20042;-73
2021/12/22 12:35:54;;;;;;;22.00;11.70;;;;;;;;;;4985525;28;20080;-74
2021/12/22 12:38:30;;;;;;;18.73;11.07;;;;;;;;;;5002910;28;20033;-74
2021/12/22 12:41:02;;;;;;;20.45;11.80;;;;;;;;;;5003447;28;20041;-74
2021/12/22 12:43:40;;;;;;;12.07;9.50;;;;;;;;;;5000855;28;20069;-74
2021/12/22 12:46:34;;;;;;;33.30;17.27;;;;;;;;;;5002543;28;20038;-74
2021/12/22 12:49:03;;;;;;;23.42;12.55;;;;;;;;;;5000489;28;20538;-74
2021/12/22 12:51:42;;;;;;;18.15;11.27;;;;;;;;;;4998474;28;20076;-74
2021/12/22 12:54:09;;;;;;;22.92;13.82;;;;;;;;;;5000495;28;20069;-73
2021/12/22 12:56:37;;;;;;;22.10;13.65;;;;;;;;;;5001447;28;20037;-74
2021/12/22 12:59:10;;;;;;;21.45;11.38;;;;;;;;;;5001436;28;20068;-73
2021/12/22 13:01:45;;;;;;;16.65;10.20;;;;;;;;;;5001166;28;20061;-73
2021/12/22 13:04:24;;;;;;;22.50;11.00;;;;;;;;;;5001262;28;20052;-75
2021/12/22 13:07:00;;;;;;;19.38;11.32;;;;;;;;;;5001064;28;20042;-73
2021/12/22 13:09:28;;;;;;;16.88;8.70;;;;;;;;;;4997396;28;20076;-74
2021/12/22 13:11:59;;;;;;;26.08;15.43;;;;;;;;;;5002316;28;20419;-75
2021/12/22 13:17:14;;;;;;;19.15;11.75;;;;;;;;;;5002639;28;20033;-73
2021/12/22 13:19:44;;;;;;;17.38;10.98;;;;;;;;;;5002606;28;20501;-76
2021/12/22 13:22:30;;;;;;;16.50;10.40;;;;;;;;;;5001983;28;20471;-75
2021/12/22 13:25:07;;;;;;;22.50;13.18;;;;;;;;;;5001233;28;20487;-74
2021/12/22 13:27:33;;;;;;;19.35;12.27;;;;;;;;;;5002303;28;20128;-74
2021/12/22 13:30:19;;;;;;;23.77;14.30;;;;;;;;;;5001424;28;20132;-73
2021/12/22 13:33:06;;;;;;;22.73;13.32;;;;;;;;;;5002932;28;20040;-75
2021/12/22 13:35:48;;;;;;;20.83;8.98;;;;;;;;;;5000744;28;20125;-75
2021/12/22 13:38:26;;;;;;;24.58;13.77;;;;;;;;;;5002565;28;20063;-74
2021/12/22 13:40:59;;;;;;;20.50;12.93;;;;;;;;;;5003096;28;20030;-74
2021/12/22 13:43:34;;;;;;;20.00;11.60;;;;;;;;;;5003500;28;20034;-78
2021/12/22 13:46:11;;;;;;;12.35;8.52;;;;;;;;;;5003087;28;20038;-73
2021/12/22 13:48:43;;;;;;;24.88;13.05;;;;;;;;;;5002341;28;20068;-72
2021/12/22 13:51:11;;;;;;;19.27;11.32;;;;;;;;;;5003201;28;20184;-72
2021/12/22 13:53:39;;;;;;;17.20;11.43;;;;;;;;;;5002911;28;20418;-74
2021/12/22 13:56:05;;;;;;;20.38;11.98;;;;;;;;;;5001502;28;20526;-75
2021/12/22 13:58:43;;;;;;;18.58;10.98;;;;;;;;;;5002356;28;20171;-74
2021/12/22 14:01:24;;;;;;;16.35;10.55;;;;;;;;;;5001203;28;20152;-75
2021/12/22 14:03:59;;;;;;;18.20;11.40;;;;;;;;;;5001228;28;20133;-74
2021/12/22 14:06:31;;;;;;;23.40;11.88;;;;;;;;;;5001281;28;20519;-73
2021/12/22 14:09:06;;;;;;;;;;;;;;;;;;5003536;28;20589;-77
2021/12/22 14:11:37;;;;;;;14.35;9.75;;;;;;;;;;4995456;28;19917;-76
2021/12/22 14:14:25;;;;;;;17.80;11.60;;;;;;;;;;5001718;28;20061;-76
2021/12/22 14:17:22;;;;;;;21.83;10.82;;;;;;;;;;5004479;28;20483;-78
2021/12/22 14:19:50;;;;;;;18.85;11.18;;;;;;;;;;4982751;28;20256;-78
2021/12/22 14:22:19;;;;;;;19.63;11.85;;;;;;;;;;4987976;28;20041;-78
2021/12/22 14:24:55;;;;;;;16.52;9.20;;;;;;;;;;5004193;28;20056;-78
2021/12/22 14:27:41;;;;;;;19.85;11.25;;;;;;;;;;5004260;28;20113;-78
2021/12/22 14:30:11;;;;;;;15.07;10.23;;;;;;;;;;5003686;28;20149;-78
2021/12/22 14:32:37;;;;;;;20.45;11.85;;;;;;;;;;4984641;28;20065;-77
2021/12/22 14:35:12;;;;;;;15.45;9.63;;;;;;;;;;4984650;28;20061;-77
2021/12/22 14:37:41;;;;;;;19.48;12.02;;;;;;;;;;5001832;28;20037;-77
2021/12/22 14:40:18;;;;;;;14.52;9.38;;;;;;;;;;5001602;28;20560;-77
2021/12/22 14:43:01;;;;;;;20.48;11.63;;;;;;;;;;5000624;28;20097;-77
2021/12/22 14:45:33;;;;;;;19.10;11.07;;;;;;;;;;5001021;28;20552;-77
2021/12/22 14:48:06;;;;;;;16.75;10.35;;;;;;;;;;4985230;28;20046;-77
2021/12/22 14:50:32;;;;;;;25.95;12.30;;;;;;;;;;5000941;28;20080;-77
2021/12/22 14:53:01;;;;;;;19.42;11.75;;;;;;;;;;5001136;28;20037;-77
2021/12/22 14:55:47;;;;;;;25.02;14.90;;;;;;;;;;5000337;28;20064;-77
2021/12/22 14:58:16;;;;;;;19.80;11.68;;;;;;;;;;5001829;28;20084;-78